createdAt,value
2022-09-27T00:00:17.616Z,67.10
2022-09-27T00:01:51.129Z,67.10
2022-09-27T00:03:24.552Z,67.20
2022-09-27T00:04:58.686Z,67.20
2022-09-27T00:06:37.439Z,67.20
2022-09-27T00:09:27.125Z,67.10
2022-09-27T00:11:39.136Z,66.60
2022-09-27T00:13:12.695Z,66.30
2022-09-27T00:14:47.353Z,66.30
2022-09-27T00:16:21.227Z,66.30
2022-09-27T00:17:55.131Z,66.20
2022-09-27T00:19:27.436Z,66.40
2022-09-27T00:21:08.480Z,66.30
2022-09-27T00:22:42.113Z,66.30
2022-09-27T00:24:19.146Z,66.10
2022-09-27T00:25:59.975Z,66.20
2022-09-27T00:27:33.389Z,66.30
2022-09-27T00:29:06.833Z,66.30
2022-09-27T00:30:43.672Z,67.30
2022-09-27T00:32:17.436Z,66.60
2022-09-27T00:33:53.321Z,66.50
2022-09-27T00:35:27.161Z,66.50
2022-09-27T00:37:00.513Z,66.80
2022-09-27T00:38:33.796Z,66.90
2022-09-27T00:40:08.696Z,66.90
2022-09-27T00:41:42.055Z,67.00
2022-09-27T00:43:21.588Z,66.90
2022-09-27T00:45:15.077Z,66.90
2022-09-27T00:46:55.602Z,66.60
2022-09-27T00:48:36.756Z,66.60
2022-09-27T00:50:23.008Z,66.60
2022-09-27T00:52:03.470Z,66.60
2022-09-27T00:53:46.281Z,66.60
2022-09-27T00:55:26.275Z,66.60
2022-09-27T00:57:01.165Z,66.50
2022-09-27T00:58:43.496Z,66.60
2022-09-27T01:00:18.960Z,66.60
2022-09-27T01:01:57.744Z,66.70
2022-09-27T01:03:45.794Z,66.70
2022-09-27T01:05:27.497Z,66.60
2022-09-27T01:07:04.916Z,66.60
2022-09-27T01:08:42.640Z,66.60
2022-09-27T01:10:22.783Z,66.60
2022-09-27T01:12:14.165Z,66.60
2022-09-27T01:14:20.446Z,66.50
2022-09-27T01:16:09.707Z,66.30
2022-09-27T01:18:03.723Z,66.20
2022-09-27T01:20:14.186Z,66.40
2022-09-27T01:22:00.104Z,66.20
2022-09-27T01:24:28.485Z,66.10
2022-09-27T01:26:18.109Z,66.40
2022-09-27T01:28:21.012Z,66.10
2022-09-27T01:30:20.999Z,66.00
2022-09-27T01:32:08.470Z,66.00
2022-09-27T01:33:48.610Z,66.00
2022-09-27T01:35:32.418Z,65.90
2022-09-27T01:37:21.474Z,66.00
2022-09-27T01:39:12.122Z,66.20
2022-09-27T01:41:13.762Z,66.20
2022-09-27T01:43:13.448Z,66.40
2022-09-27T01:44:55.870Z,66.40
2022-09-27T01:46:40.294Z,66.20
2022-09-27T01:48:42.666Z,66.10
2022-09-27T01:50:34.014Z,66.10
2022-09-27T01:52:12.247Z,65.90
2022-09-27T01:53:50.201Z,66.10
2022-09-27T01:55:49.011Z,66.10
2022-09-27T01:57:50.185Z,65.90
2022-09-27T01:59:39.370Z,65.70
2022-09-27T02:01:27.492Z,65.70
2022-09-27T02:03:10.127Z,65.80
2022-09-27T02:05:08.397Z,66.00
2022-09-27T02:06:48.399Z,65.90
2022-09-27T02:08:37.687Z,66.00
2022-09-27T02:10:23.795Z,66.00
2022-09-27T02:12:09.599Z,65.90
2022-09-27T02:13:51.044Z,66.00
2022-09-27T02:15:57.206Z,65.90
2022-09-27T02:17:54.920Z,66.10
2022-09-27T02:19:47.805Z,66.10
2022-09-27T02:21:26.441Z,66.10
2022-09-27T02:23:14.688Z,66.00
2022-09-27T02:24:58.421Z,67.00
2022-09-27T02:26:41.797Z,66.20
2022-09-27T02:28:27.365Z,66.40
2022-09-27T02:30:07.094Z,66.20
2022-09-27T02:31:43.125Z,66.20
2022-09-27T02:33:16.965Z,66.20
2022-09-27T02:34:53.593Z,66.20
2022-09-27T02:36:27.444Z,66.20
2022-09-27T02:38:02.715Z,66.20
2022-09-27T02:39:36.379Z,66.30
2022-09-27T02:41:17.231Z,66.40
2022-09-27T02:42:51.307Z,66.40
2022-09-27T02:44:26.786Z,66.40
2022-09-27T02:46:21.371Z,66.50
2022-09-27T02:48:16.406Z,66.70
2022-09-27T02:50:06.959Z,66.50
2022-09-27T02:52:14.854Z,66.40
2022-09-27T02:54:09.264Z,66.20
2022-09-27T02:56:12.781Z,65.60
2022-09-27T02:58:22.782Z,66.30
2022-09-27T03:00:37.771Z,65.60
2022-09-27T03:02:39.623Z,66.10
2022-09-27T03:04:49.365Z,66.00
2022-09-27T03:06:25.401Z,66.20
2022-09-27T03:07:59.731Z,66.00
2022-09-27T03:09:44.895Z,66.00
2022-09-27T03:11:18.530Z,66.00
2022-09-27T03:12:53.336Z,66.10
2022-09-27T03:14:26.952Z,66.00
2022-09-27T03:16:09.119Z,66.00
2022-09-27T03:18:03.052Z,66.10
2022-09-27T03:19:57.973Z,66.00
2022-09-27T03:21:51.699Z,66.00
2022-09-27T03:23:25.663Z,66.00
2022-09-27T03:24:59.476Z,66.00
2022-09-27T03:26:33.131Z,66.00
2022-09-27T03:28:06.804Z,66.10
2022-09-27T03:29:41.477Z,66.00
2022-09-27T03:31:16.368Z,66.10
2022-09-27T03:32:57.148Z,66.00
2022-09-27T03:34:51.323Z,66.00
2022-09-27T03:36:25.210Z,66.00
2022-09-27T03:37:58.786Z,66.00
2022-09-27T03:39:33.136Z,66.10
2022-09-27T03:41:07.579Z,66.00
2022-09-27T03:42:44.048Z,66.10
2022-09-27T03:44:20.206Z,66.10
2022-09-27T03:45:53.765Z,66.00
2022-09-27T03:47:27.331Z,66.20
2022-09-27T03:49:01.123Z,66.10
2022-09-27T03:50:36.344Z,66.10
2022-09-27T03:52:09.852Z,66.10
2022-09-27T03:53:43.816Z,66.00
2022-09-27T03:55:20.425Z,65.90
2022-09-27T03:56:54.287Z,65.90
2022-09-27T03:58:27.943Z,65.90
2022-09-27T04:00:01.220Z,65.90
2022-09-27T04:02:03.335Z,65.70
2022-09-27T04:03:57.107Z,65.50
2022-09-27T04:05:37.774Z,65.30
2022-09-27T04:07:17.507Z,65.20
2022-09-27T04:08:51.332Z,65.20
2022-09-27T04:10:25.937Z,65.40
2022-09-27T04:11:59.395Z,65.50
2022-09-27T04:13:34.061Z,65.50
2022-09-27T04:15:08.285Z,65.60
2022-09-27T04:17:11.987Z,65.60
2022-09-27T04:19:02.688Z,65.60
2022-09-27T04:20:57.419Z,65.30
2022-09-27T04:22:31.795Z,65.20
2022-09-27T04:24:05.365Z,65.10
2022-09-27T04:25:40.508Z,65.00
2022-09-27T04:27:22.726Z,64.80
2022-09-27T04:28:56.842Z,64.90
2022-09-27T04:30:31.055Z,65.00
2022-09-27T04:32:34.753Z,65.20
2022-09-27T04:34:45.874Z,65.20
2022-09-27T04:36:29.831Z,65.20
2022-09-27T04:38:07.311Z,65.20
2022-09-27T04:39:41.056Z,65.40
2022-09-27T04:41:15.456Z,65.50
2022-09-27T04:42:49.248Z,65.60
2022-09-27T04:44:21.708Z,65.70
2022-09-27T04:45:57.250Z,65.70
2022-09-27T04:47:30.872Z,65.60
2022-09-27T04:49:06.060Z,65.60
2022-09-27T04:50:41.526Z,65.80
2022-09-27T04:52:15.764Z,65.90
2022-09-27T04:53:49.612Z,65.90
2022-09-27T04:55:24.372Z,66.00
2022-09-27T04:56:58.100Z,65.80
2022-09-27T04:58:33.506Z,65.70
2022-09-27T05:00:10.146Z,65.70
2022-09-27T05:01:45.160Z,65.90
2022-09-27T05:03:34.648Z,66.00
2022-09-27T05:05:17.195Z,66.10
2022-09-27T05:06:56.280Z,66.90
2022-09-27T05:08:38.656Z,66.20
2022-09-27T05:10:26.224Z,66.30
2022-09-27T05:11:59.741Z,66.40
2022-09-27T05:13:46.106Z,66.50
2022-09-27T05:15:19.799Z,66.50
2022-09-27T05:17:16.552Z,66.50
2022-09-27T05:19:07.791Z,66.50
2022-09-27T05:21:01.331Z,66.50
2022-09-27T05:22:42.021Z,66.50
2022-09-27T05:24:15.962Z,66.50
2022-09-27T05:25:49.483Z,66.60
2022-09-27T05:27:23.028Z,67.70
2022-09-27T05:28:56.891Z,66.80
2022-09-27T05:30:31.763Z,66.80
2022-09-27T05:32:15.145Z,66.70
2022-09-27T05:33:50.595Z,66.80
2022-09-27T05:35:51.107Z,66.80
2022-09-27T05:37:25.103Z,66.80
2022-09-27T05:38:58.855Z,66.90
2022-09-27T05:40:41.694Z,66.80
2022-09-27T05:42:17.665Z,66.80
2022-09-27T05:43:52.607Z,66.90
2022-09-27T05:45:27.099Z,67.10
2022-09-27T05:47:04.222Z,67.10
2022-09-27T05:48:38.375Z,67.10
2022-09-27T05:50:13.709Z,66.90
2022-09-27T05:51:49.046Z,66.70
2022-09-27T05:53:22.635Z,66.50
2022-09-27T05:54:56.187Z,66.40
2022-09-27T05:56:29.691Z,66.40
2022-09-27T05:58:32.744Z,66.50
2022-09-27T06:00:18.267Z,66.50
2022-09-27T06:02:05.331Z,66.50
2022-09-27T06:03:58.916Z,66.50
2022-09-27T06:05:53.156Z,66.70
2022-09-27T06:07:41.672Z,66.70
2022-09-27T06:09:23.284Z,66.50
2022-09-27T06:11:04.285Z,66.40
2022-09-27T06:12:38.744Z,66.40
2022-09-27T06:14:22.167Z,66.20
2022-09-27T06:16:06.697Z,66.20
2022-09-27T06:17:42.930Z,66.30
2022-09-27T06:19:22.214Z,66.20
2022-09-27T06:20:56.513Z,66.20
2022-09-27T06:22:30.108Z,66.00
2022-09-27T06:24:07.164Z,66.00
2022-09-27T06:25:43.131Z,66.10
2022-09-27T06:27:36.501Z,66.10
2022-09-27T06:29:13.387Z,66.20
2022-09-27T06:30:53.910Z,66.20
2022-09-27T06:32:48.896Z,66.40
2022-09-27T06:34:28.426Z,66.50
2022-09-27T06:36:04.215Z,66.60
2022-09-27T06:37:38.529Z,66.50
2022-09-27T06:39:12.182Z,66.40
2022-09-27T06:41:01.790Z,66.40
2022-09-27T06:42:50.366Z,66.40
2022-09-27T06:44:29.735Z,66.40
2022-09-27T06:46:23.257Z,66.30
2022-09-27T06:48:18.208Z,66.00
2022-09-27T06:50:05.708Z,65.80
2022-09-27T06:51:40.395Z,65.70
2022-09-27T06:53:16.971Z,65.70
2022-09-27T06:54:50.534Z,65.70
2022-09-27T06:56:24.134Z,65.70
2022-09-27T06:58:20.383Z,65.70
2022-09-27T07:00:26.972Z,65.70
2022-09-27T07:02:20.596Z,65.50
2022-09-27T07:04:07.245Z,65.40
2022-09-27T07:05:58.905Z,65.10
2022-09-27T07:07:56.108Z,65.00
2022-09-27T07:09:29.708Z,65.00
2022-09-27T07:11:06.459Z,65.00
2022-09-27T07:12:41.272Z,64.80
2022-09-27T07:14:17.383Z,64.90
2022-09-27T07:15:50.982Z,64.90
2022-09-27T07:17:24.795Z,65.00
2022-09-27T07:18:59.141Z,65.10
2022-09-27T07:20:37.156Z,65.30
2022-09-27T07:22:11.282Z,65.40
2022-09-27T07:23:46.440Z,65.70
2022-09-27T07:25:21.267Z,65.70
2022-09-27T07:26:56.294Z,65.50
2022-09-27T07:28:30.749Z,65.60
2022-09-27T07:30:07.240Z,65.60
2022-09-27T07:31:42.671Z,65.40
2022-09-27T07:33:16.858Z,65.10
2022-09-27T07:34:50.529Z,64.90
2022-09-27T07:36:25.611Z,64.60
2022-09-27T07:37:59.985Z,64.30
2022-09-27T07:39:34.014Z,64.20
2022-09-27T07:41:10.758Z,64.00
2022-09-27T07:42:44.663Z,64.20
2022-09-27T07:44:18.422Z,64.20
2022-09-27T07:46:13.412Z,64.20
2022-09-27T07:47:56.150Z,64.20
2022-09-27T07:49:45.557Z,64.30
2022-09-27T07:51:40.345Z,64.40
2022-09-27T07:53:33.871Z,64.10
2022-09-27T07:55:27.791Z,64.20
2022-09-27T07:57:11.201Z,64.40
2022-09-27T07:58:53.681Z,64.60
2022-09-27T08:00:27.386Z,64.70
2022-09-27T08:02:01.467Z,64.80
2022-09-27T08:03:36.132Z,65.10
2022-09-27T08:05:10.892Z,65.10
2022-09-27T08:06:47.488Z,65.10
2022-09-27T08:08:21.594Z,65.00
2022-09-27T08:09:57.375Z,65.00
2022-09-27T08:11:30.895Z,65.10
2022-09-27T08:13:06.424Z,65.00
2022-09-27T08:14:44.972Z,64.80
2022-09-27T08:16:21.990Z,64.60
2022-09-27T08:18:16.378Z,65.00
2022-09-27T08:20:10.757Z,64.90
2022-09-27T08:22:05.795Z,64.60
2022-09-27T08:23:46.781Z,64.50
2022-09-27T08:25:25.395Z,64.60
2022-09-27T08:27:19.377Z,64.50
2022-09-27T08:28:57.069Z,64.10
2022-09-27T08:30:33.813Z,64.10
2022-09-27T08:32:08.500Z,64.20
2022-09-27T08:33:42.166Z,64.20
2022-09-27T08:35:17.180Z,64.30
2022-09-27T08:36:51.414Z,64.30
2022-09-27T08:38:26.908Z,64.50
2022-09-27T08:40:00.718Z,65.40
2022-09-27T08:41:41.747Z,64.60
2022-09-27T08:43:30.826Z,64.60
2022-09-27T08:45:14.983Z,64.30
2022-09-27T08:47:03.718Z,64.20
2022-09-27T08:48:40.469Z,64.00
2022-09-27T08:50:27.630Z,64.10
2022-09-27T08:52:05.119Z,64.10
2022-09-27T08:53:49.203Z,64.00
2022-09-27T08:55:37.295Z,63.90
2022-09-27T08:57:17.990Z,63.60
2022-09-27T08:58:59.990Z,63.10
2022-09-27T09:00:39.622Z,62.90
2022-09-27T09:02:21.308Z,62.90
2022-09-27T09:04:04.186Z,62.90
2022-09-27T09:05:39.424Z,63.10
2022-09-27T09:07:43.118Z,63.10
2022-09-27T09:09:35.279Z,62.90
2022-09-27T09:11:59.998Z,63.10
2022-09-27T09:13:54.004Z,63.10
2022-09-27T09:15:55.162Z,62.90
2022-09-27T09:17:51.021Z,62.90
2022-09-27T09:19:58.655Z,62.90
2022-09-27T09:21:57.696Z,62.90
2022-09-27T09:24:04.661Z,63.00
2022-09-27T09:25:54.948Z,62.90
2022-09-27T09:27:44.230Z,63.00
2022-09-27T09:29:41.027Z,62.90
2022-09-27T09:31:29.966Z,62.90
2022-09-27T09:33:19.646Z,62.90
2022-09-27T09:35:01.972Z,62.50
2022-09-27T09:36:43.930Z,62.60
2022-09-27T09:38:25.151Z,62.90
2022-09-27T09:40:09.160Z,62.90
2022-09-27T09:42:03.186Z,62.90
2022-09-27T09:43:44.013Z,63.00
2022-09-27T09:45:23.101Z,63.00
2022-09-27T09:47:01.640Z,63.00
2022-09-27T09:48:45.828Z,63.00
2022-09-27T09:50:27.278Z,63.00
2022-09-27T09:52:09.091Z,63.00
2022-09-27T09:53:52.523Z,63.00
2022-09-27T09:55:37.358Z,63.00
2022-09-27T09:57:19.517Z,62.80
2022-09-27T09:59:02.253Z,62.50
2022-09-27T10:00:42.767Z,62.80
2022-09-27T10:02:32.522Z,62.60
2022-09-27T10:04:20.980Z,62.10
2022-09-27T10:05:54.741Z,62.30
2022-09-27T10:07:30.169Z,62.20
2022-09-27T10:09:04.794Z,62.20
2022-09-27T10:10:45.528Z,62.70
2022-09-27T10:12:39.790Z,62.80
2022-09-27T10:14:16.664Z,62.50
2022-09-27T10:16:02.513Z,62.00
2022-09-27T10:17:42.556Z,61.70
2022-09-27T10:19:27.407Z,61.50
2022-09-27T10:21:08.191Z,61.70
2022-09-27T10:22:49.030Z,62.20
2022-09-27T10:24:57.853Z,62.30
2022-09-27T10:26:48.478Z,62.20
2022-09-27T10:28:34.417Z,62.30
2022-09-27T10:30:23.825Z,62.20
2022-09-27T10:31:58.396Z,62.60
2022-09-27T10:33:56.098Z,62.80
2022-09-27T10:35:40.072Z,62.10
2022-09-27T10:37:19.675Z,62.10
2022-09-27T10:39:06.954Z,62.30
2022-09-27T10:40:47.469Z,62.70
2022-09-27T10:42:34.716Z,62.90
2022-09-27T10:44:26.829Z,63.20
2022-09-27T10:46:21.592Z,62.20
2022-09-27T10:47:59.589Z,61.90
2022-09-27T10:49:45.030Z,61.50
2022-09-27T10:51:37.944Z,61.00
2022-09-27T10:53:18.722Z,60.90
2022-09-27T10:54:59.912Z,60.90
2022-09-27T10:56:36.172Z,60.60
2022-09-27T10:58:21.731Z,60.60
2022-09-27T11:00:00.887Z,60.70
2022-09-27T11:01:45.700Z,60.80
2022-09-27T11:03:28.839Z,60.70
2022-09-27T11:05:15.263Z,60.80
2022-09-27T11:06:50.804Z,60.80
2022-09-27T11:08:32.506Z,60.70
2022-09-27T11:10:29.897Z,60.60
2022-09-27T11:12:13.288Z,59.90
2022-09-27T11:14:03.162Z,60.40
2022-09-27T11:16:01.676Z,60.20
2022-09-27T11:17:49.511Z,60.20
2022-09-27T11:19:59.885Z,60.30
2022-09-27T11:21:49.065Z,60.10
2022-09-27T11:23:45.101Z,61.00
2022-09-27T11:25:39.960Z,61.50
2022-09-27T11:27:29.796Z,60.80
2022-09-27T11:29:21.489Z,60.40
2022-09-27T11:31:32.989Z,60.10
2022-09-27T11:33:40.379Z,59.60
2022-09-27T11:35:35.203Z,59.50
2022-09-27T11:37:28.118Z,59.90
2022-09-27T11:39:12.019Z,60.10
2022-09-27T11:41:19.060Z,60.60
2022-09-27T11:43:27.216Z,61.20
2022-09-27T11:45:50.526Z,61.40
2022-09-27T11:47:37.411Z,61.30
2022-09-27T11:49:52.392Z,61.30
2022-09-27T11:51:55.697Z,61.30
2022-09-27T11:53:55.145Z,61.60
2022-09-27T11:55:47.171Z,60.90
2022-09-27T11:57:28.823Z,60.30
2022-09-27T11:59:30.479Z,60.30
2022-09-27T12:01:26.947Z,60.00
2022-09-27T12:03:36.780Z,60.10
2022-09-27T12:05:31.244Z,59.40
2022-09-27T12:07:20.719Z,59.30
2022-09-27T12:09:11.668Z,59.20
2022-09-27T12:10:52.615Z,58.90
2022-09-27T12:12:30.387Z,58.80
2022-09-27T12:14:11.224Z,58.70
2022-09-27T12:15:48.997Z,58.70
2022-09-27T12:17:35.272Z,58.80
2022-09-27T12:19:21.834Z,59.00
2022-09-27T12:21:10.567Z,58.80
2022-09-27T12:22:59.137Z,59.00
2022-09-27T12:24:47.845Z,59.10
2022-09-27T12:26:43.884Z,59.30
2022-09-27T12:28:28.122Z,59.10
2022-09-27T12:30:06.377Z,58.80
2022-09-27T12:31:48.450Z,58.80
2022-09-27T12:33:33.823Z,58.80
2022-09-27T12:35:20.191Z,58.60
2022-09-27T12:37:05.131Z,58.40
2022-09-27T12:38:46.751Z,58.20
2022-09-27T12:40:26.054Z,58.10
2022-09-27T12:42:09.568Z,58.10
2022-09-27T12:43:51.949Z,58.30
2022-09-27T12:45:48.402Z,58.20
2022-09-27T12:47:45.414Z,57.70
2022-09-27T12:49:34.165Z,57.30
2022-09-27T12:51:13.636Z,57.50
2022-09-27T12:52:59.292Z,57.80
2022-09-27T12:54:56.733Z,57.90
2022-09-27T12:56:51.607Z,57.70
2022-09-27T12:59:10.780Z,57.50
2022-09-27T13:00:57.982Z,57.40
2022-09-27T13:03:16.232Z,57.30
2022-09-27T13:05:37.792Z,57.40
2022-09-27T13:07:31.654Z,57.70
2022-09-27T13:09:40.681Z,58.00
2022-09-27T13:11:24.791Z,57.70
2022-09-27T13:13:01.129Z,57.40
2022-09-27T13:14:42.954Z,57.40
2022-09-27T13:16:17.239Z,57.60
2022-09-27T13:17:57.330Z,57.20
2022-09-27T13:19:45.666Z,57.00
2022-09-27T13:21:59.913Z,56.90
2022-09-27T13:23:54.555Z,56.60
2022-09-27T13:25:55.804Z,56.70
2022-09-27T13:27:42.780Z,56.60
2022-09-27T13:29:34.437Z,57.10
2022-09-27T13:31:16.540Z,57.50
2022-09-27T13:33:40.599Z,57.60
2022-09-27T13:35:24.325Z,57.50
2022-09-27T13:37:40.681Z,57.60
2022-09-27T13:39:23.825Z,57.60
2022-09-27T13:41:20.009Z,57.60
2022-09-27T13:43:42.990Z,57.90
2022-09-27T13:45:35.499Z,58.30
2022-09-27T13:47:30.297Z,58.10
2022-09-27T13:49:16.143Z,57.40
2022-09-27T13:51:24.428Z,57.80
2022-09-27T13:53:20.731Z,58.80
2022-09-27T13:54:58.668Z,58.50
2022-09-27T13:56:54.428Z,58.50
2022-09-27T13:58:49.837Z,58.70
2022-09-27T14:00:48.343Z,58.60
2022-09-27T14:02:30.201Z,58.30
2022-09-27T14:04:14.497Z,58.20
2022-09-27T14:05:53.462Z,58.30
2022-09-27T14:07:38.152Z,58.10
2022-09-27T14:09:21.639Z,58.50
2022-09-27T14:11:14.916Z,58.80
2022-09-27T14:12:53.130Z,59.40
2022-09-27T14:14:32.835Z,58.90
2022-09-27T14:16:10.802Z,58.80
2022-09-27T14:17:45.916Z,58.70
2022-09-27T14:19:25.470Z,58.80
2022-09-27T14:21:21.214Z,58.70
2022-09-27T14:23:05.028Z,59.20
2022-09-27T14:24:49.078Z,59.20
2022-09-27T14:26:29.919Z,59.40
2022-09-27T14:28:03.945Z,59.40
2022-09-27T14:29:47.748Z,59.30
2022-09-27T14:31:27.586Z,59.30
2022-09-27T14:33:34.443Z,59.30
2022-09-27T14:35:35.877Z,59.40
2022-09-27T14:37:27.037Z,59.40
2022-09-27T14:39:22.436Z,59.70
2022-09-27T14:41:03.349Z,59.70
2022-09-27T14:42:39.219Z,59.60
2022-09-27T14:44:19.269Z,59.60
2022-09-27T14:45:59.668Z,59.60
2022-09-27T14:47:34.524Z,59.50
2022-09-27T14:49:20.284Z,59.40
2022-09-27T14:51:04.970Z,59.40
2022-09-27T14:52:41.283Z,59.50
2022-09-27T14:54:25.249Z,59.70
2022-09-27T14:55:59.979Z,60.00
2022-09-27T14:57:38.691Z,60.20
2022-09-27T14:59:24.187Z,60.20
2022-09-27T15:01:00.178Z,60.40
2022-09-27T15:02:42.086Z,60.40
2022-09-27T15:04:16.720Z,60.50
2022-09-27T15:05:50.444Z,60.40
2022-09-27T15:07:24.857Z,60.50
2022-09-27T15:08:59.491Z,60.50
2022-09-27T15:10:37.553Z,60.60
2022-09-27T15:12:15.327Z,60.60
2022-09-27T15:13:54.379Z,60.70
2022-09-27T15:15:32.345Z,60.20
2022-09-27T15:17:06.447Z,60.00
2022-09-27T15:18:46.445Z,60.00
2022-09-27T15:20:32.214Z,60.00
2022-09-27T15:22:36.232Z,60.00
2022-09-27T15:24:44.437Z,60.00
2022-09-27T15:26:22.284Z,60.90
2022-09-27T15:27:57.024Z,60.00
2022-09-27T15:29:30.758Z,60.20
2022-09-27T15:31:05.706Z,60.30
2022-09-27T15:32:39.338Z,60.30
2022-09-27T15:34:24.096Z,60.30
2022-09-27T15:36:07.859Z,59.50
2022-09-27T15:37:44.075Z,59.50
2022-09-27T15:39:27.270Z,59.80
2022-09-27T15:41:14.562Z,60.20
2022-09-27T15:42:58.279Z,60.40
2022-09-27T15:44:45.861Z,59.60
2022-09-27T15:46:47.629Z,59.30
2022-09-27T15:48:22.636Z,59.10
2022-09-27T15:49:55.999Z,59.20
2022-09-27T15:51:43.160Z,59.30
2022-09-27T15:53:44.244Z,59.20
2022-09-27T15:55:19.523Z,59.40
2022-09-27T15:56:58.209Z,59.60
2022-09-27T15:58:32.516Z,59.70
2022-09-27T16:00:07.923Z,59.60
2022-09-27T16:02:04.241Z,59.40
2022-09-27T16:03:44.848Z,59.40
2022-09-27T16:05:18.232Z,59.50
2022-09-27T16:06:52.032Z,59.60
2022-09-27T16:08:25.998Z,59.70
2022-09-27T16:09:59.338Z,59.80
2022-09-27T16:11:32.769Z,59.90
2022-09-27T16:13:06.103Z,60.00
2022-09-27T16:14:39.499Z,60.00
2022-09-27T16:16:21.732Z,59.90
2022-09-27T16:17:57.683Z,60.20
2022-09-27T16:19:30.994Z,59.90
2022-09-27T16:21:04.708Z,59.60
2022-09-27T16:22:37.962Z,59.80
2022-09-27T16:24:11.839Z,60.00
2022-09-27T16:25:45.281Z,60.10
2022-09-27T16:27:24.759Z,60.20
2022-09-27T16:28:58.561Z,60.20
2022-09-27T16:30:32.809Z,60.50
2022-09-27T16:32:06.883Z,60.70
2022-09-27T16:33:41.711Z,60.70
2022-09-27T16:35:17.923Z,60.40
2022-09-27T16:36:51.618Z,60.30
2022-09-27T16:38:27.012Z,60.30
2022-09-27T16:40:00.405Z,60.50
2022-09-27T16:41:35.677Z,60.50
2022-09-27T16:43:09.001Z,60.50
2022-09-27T16:44:42.941Z,60.40
2022-09-27T16:46:19.236Z,60.50
2022-09-27T16:47:52.568Z,60.60
2022-09-27T16:49:44.975Z,60.70
2022-09-27T16:51:50.614Z,60.80
2022-09-27T16:53:24.425Z,60.80
2022-09-27T16:54:57.891Z,61.50
2022-09-27T16:56:32.150Z,60.80
2022-09-27T16:58:07.307Z,60.60
2022-09-27T16:59:40.746Z,60.80
2022-09-27T17:01:16.725Z,60.80
2022-09-27T17:02:51.816Z,61.00
2022-09-27T17:04:29.432Z,61.10
2022-09-27T17:06:04.309Z,61.10
2022-09-27T17:07:37.707Z,61.20
2022-09-27T17:09:12.140Z,61.20
2022-09-27T17:10:46.534Z,61.40
2022-09-27T17:12:20.441Z,61.60
2022-09-27T17:13:56.984Z,61.50
2022-09-27T17:15:31.290Z,61.70
2022-09-27T17:17:04.541Z,61.70
2022-09-27T17:18:39.109Z,61.70
2022-09-27T17:20:13.958Z,61.80
2022-09-27T17:21:47.782Z,61.70
2022-09-27T17:23:21.012Z,61.70
2022-09-27T17:24:54.379Z,61.70
2022-09-27T17:26:30.500Z,61.60
2022-09-27T17:28:03.983Z,61.60
2022-09-27T17:29:38.684Z,61.40
2022-09-27T17:31:15.516Z,61.30
2022-09-27T17:32:48.923Z,61.30
2022-09-27T17:34:23.091Z,61.10
2022-09-27T17:36:02.403Z,60.80
2022-09-27T17:37:35.920Z,60.90
2022-09-27T17:39:12.733Z,61.00
2022-09-27T17:40:46.223Z,61.20
2022-09-27T17:42:19.842Z,61.40
2022-09-27T17:43:55.520Z,61.50
2022-09-27T17:45:28.905Z,61.20
2022-09-27T17:47:19.783Z,60.90
2022-09-27T17:49:10.907Z,60.60
2022-09-27T17:50:47.975Z,60.50
2022-09-27T17:52:23.411Z,60.30
2022-09-27T17:53:57.007Z,60.30
2022-09-27T17:55:32.547Z,60.30
2022-09-27T17:57:05.904Z,60.40
2022-09-27T17:58:39.625Z,60.30
2022-09-27T18:00:13.418Z,60.30
2022-09-27T18:01:49.490Z,60.30
2022-09-27T18:03:22.802Z,60.10
2022-09-27T18:04:56.243Z,60.10
2022-09-27T18:06:30.245Z,60.10
2022-09-27T18:08:05.086Z,60.00
2022-09-27T18:09:38.304Z,60.10
2022-09-27T18:11:13.734Z,60.00
2022-09-27T18:12:47.439Z,60.00
2022-09-27T18:14:22.108Z,59.80
2022-09-27T18:15:59.754Z,59.90
2022-09-27T18:17:33.696Z,59.80
2022-09-27T18:19:11.828Z,59.90
2022-09-27T18:20:45.408Z,59.80
2022-09-27T18:22:20.194Z,60.60
2022-09-27T18:23:57.499Z,59.80
2022-09-27T18:25:30.907Z,59.80
2022-09-27T18:27:04.274Z,59.80
2022-09-27T18:28:39.883Z,59.80
2022-09-27T18:30:13.694Z,59.80
2022-09-27T18:31:49.088Z,59.80
2022-09-27T18:33:22.832Z,59.70
2022-09-27T18:34:56.580Z,59.80
2022-09-27T18:36:30.282Z,59.80
2022-09-27T18:38:04.246Z,59.80
2022-09-27T18:39:40.274Z,59.60
2022-09-27T18:41:16.621Z,59.70
2022-09-27T18:42:50.320Z,59.70
2022-09-27T18:44:23.807Z,59.70
2022-09-27T18:46:07.650Z,59.80
2022-09-27T18:47:50.629Z,59.80
2022-09-27T18:49:27.058Z,60.00
2022-09-27T18:51:09.183Z,60.00
2022-09-27T18:52:42.667Z,60.00
2022-09-27T18:54:19.239Z,60.00
2022-09-27T18:55:54.466Z,60.90
2022-09-27T18:57:28.136Z,60.00
2022-09-27T18:59:01.504Z,60.20
2022-09-27T19:00:34.922Z,60.30
2022-09-27T19:02:13.769Z,60.40
2022-09-27T19:03:47.644Z,60.50
2022-09-27T19:05:21.164Z,60.50
2022-09-27T19:06:57.733Z,60.50
2022-09-27T19:08:34.249Z,60.60
2022-09-27T19:10:10.098Z,60.70
2022-09-27T19:11:45.013Z,60.80
2022-09-27T19:13:24.081Z,61.00
2022-09-27T19:15:01.492Z,60.90
2022-09-27T19:16:35.574Z,60.80
2022-09-27T19:18:09.428Z,61.00
2022-09-27T19:19:42.967Z,61.00
2022-09-27T19:21:20.773Z,61.20
2022-09-27T19:22:56.171Z,61.40
2022-09-27T19:24:29.560Z,61.40
2022-09-27T19:26:04.783Z,61.40
2022-09-27T19:27:43.082Z,61.60
2022-09-27T19:29:19.888Z,61.70
2022-09-27T19:30:53.377Z,61.70
2022-09-27T19:32:27.734Z,61.80
2022-09-27T19:34:01.081Z,61.80
2022-09-27T19:35:34.533Z,61.80
2022-09-27T19:37:07.968Z,61.80
2022-09-27T19:38:41.540Z,61.80
2022-09-27T19:40:15.252Z,61.90
2022-09-27T19:41:48.737Z,62.00
2022-09-27T19:43:23.659Z,61.90
2022-09-27T19:44:57.352Z,61.90
2022-09-27T19:46:30.829Z,62.10
2022-09-27T19:48:04.289Z,62.90
2022-09-27T19:49:37.628Z,62.20
2022-09-27T19:51:15.545Z,62.10
2022-09-27T19:52:49.475Z,61.80
2022-09-27T19:54:24.031Z,61.70
2022-09-27T19:55:59.374Z,61.70
2022-09-27T19:57:33.165Z,61.80
2022-09-27T19:59:07.963Z,61.90
2022-09-27T20:00:41.252Z,61.70
2022-09-27T20:02:14.910Z,61.50
2022-09-27T20:03:50.382Z,61.40
2022-09-27T20:05:23.866Z,61.30
2022-09-27T20:06:57.231Z,61.30
2022-09-27T20:08:31.208Z,61.20
2022-09-27T20:10:05.488Z,61.20
2022-09-27T20:11:39.260Z,61.20
2022-09-27T20:13:12.716Z,61.20
2022-09-27T20:14:47.387Z,61.30
2022-09-27T20:16:23.395Z,61.20
2022-09-27T20:17:58.106Z,61.50
2022-09-27T20:19:31.396Z,61.30
2022-09-27T20:21:05.998Z,61.20
2022-09-27T20:22:39.463Z,61.10
2022-09-27T20:24:14.173Z,61.10
2022-09-27T20:25:49.092Z,61.00
2022-09-27T20:27:31.392Z,60.90
2022-09-27T20:29:07.429Z,60.50
2022-09-27T20:30:42.680Z,61.00
2022-09-27T20:32:27.179Z,61.10
2022-09-27T20:34:01.813Z,60.90
2022-09-27T20:35:36.188Z,61.00
2022-09-27T20:37:10.006Z,61.00
2022-09-27T20:38:44.418Z,61.30
2022-09-27T20:40:18.321Z,61.30
2022-09-27T20:41:51.803Z,61.20
2022-09-27T20:43:26.401Z,61.20
2022-09-27T20:45:05.873Z,61.50
2022-09-27T20:46:53.144Z,61.70
2022-09-27T20:48:25.843Z,62.70
2022-09-27T20:49:59.122Z,61.80
2022-09-27T20:51:35.118Z,62.10
2022-09-27T20:53:08.347Z,62.10
2022-09-27T20:54:41.702Z,62.20
2022-09-27T20:56:18.364Z,62.40
2022-09-27T20:57:57.834Z,62.60
2022-09-27T20:59:31.359Z,62.70
2022-09-27T21:01:08.653Z,62.80
2022-09-27T21:02:43.479Z,63.00
2022-09-27T21:04:19.990Z,63.00
2022-09-27T21:05:56.709Z,63.10
2022-09-27T21:07:30.059Z,64.00
2022-09-27T21:09:09.531Z,63.20
2022-09-27T21:10:43.035Z,63.40
2022-09-27T21:12:16.400Z,63.50
2022-09-27T21:13:51.795Z,63.50
2022-09-27T21:15:25.255Z,63.60
2022-09-27T21:17:01.770Z,63.60
2022-09-27T21:18:37.381Z,63.70
2022-09-27T21:20:11.176Z,63.90
2022-09-27T21:21:44.539Z,64.00
2022-09-27T21:23:17.907Z,64.10
2022-09-27T21:24:51.456Z,64.20
2022-09-27T21:26:26.493Z,64.20
2022-09-27T21:27:58.878Z,64.20
2022-09-27T21:29:32.488Z,64.30
2022-09-27T21:31:10.600Z,64.30
2022-09-27T21:32:44.115Z,64.40
2022-09-27T21:34:18.747Z,64.50
2022-09-27T21:35:52.154Z,64.50
2022-09-27T21:37:25.807Z,64.50
2022-09-27T21:38:59.945Z,64.50
2022-09-27T21:40:33.764Z,64.70
2022-09-27T21:42:07.864Z,64.70
2022-09-27T21:43:41.997Z,64.80
2022-09-27T21:45:15.414Z,64.80
2022-09-27T21:46:50.314Z,64.90
2022-09-27T21:48:22.794Z,65.00
2022-09-27T21:49:57.384Z,65.00
2022-09-27T21:51:33.399Z,65.10
2022-09-27T21:53:06.957Z,65.20